Point Pleasant, Pennsylvania
Current Conditions -  °F | °C
As of 1:54 AM on Wednesday 22 Oct 2014 (Local Time) from KDYL Reporting Station
Overcast Overcast  
Wind Chill: 51°   Ceiling: 8500
Heat Index: 51°   Visibility: 10mi
Dew Point: 51°   Wind: 7mph
Humidity: 100%   Direction: 20°NNE
Pressure: 29.88"   Gusts: NA
Location:  40.42°N, 75.07°W
Report Text: KDYL 220554Z AUTO 02006KT 10SM OVC085 11/11 A2988 RMK AO2 SLP117 60015 T01060106 10133 20106 57007
Loading
Personal Weather Stations






























Interactive Weather Map
Tropical Storm Tracking
New forecast layout! Learn more

10-Day Weather Forecast

Advertisements
Track Severe Weather on mobile